sensor_id;sensor_type;location;lat;lon;timestamp;noise_LAeq;noise_LA_min;noise_LA_max;noise_LA01;noise_LA95
72415;Laerm;60995;52.154;4.498;2022-07-11T00:01:33;43.02;36.18;52.46;;
72415;Laerm;60995;52.154;4.498;2022-07-11T00:03:49;43.60;36.43;58.09;;
72415;Laerm;60995;52.154;4.498;2022-07-11T00:06:06;42.84;36.43;54.07;;
72415;Laerm;60995;52.154;4.498;2022-07-11T00:08:22;44.09;36.90;54.20;;
72415;Laerm;60995;52.154;4.498;2022-07-11T00:10:39;43.05;36.67;61.42;;
72415;Laerm;60995;52.154;4.498;2022-07-11T00:12:56;43.00;36.71;52.87;;
72415;Laerm;60995;52.154;4.498;2022-07-11T00:15:13;45.50;37.48;65.41;;
72415;Laerm;60995;52.154;4.498;2022-07-11T00:17:29;42.75;36.36;52.55;;
72415;Laerm;60995;52.154;4.498;2022-07-11T00:19:46;43.95;36.55;55.70;;
72415;Laerm;60995;52.154;4.498;2022-07-11T00:22:03;44.09;36.51;68.90;;
72415;Laerm;60995;52.154;4.498;2022-07-11T00:24:20;42.78;36.73;54.15;;
72415;Laerm;60995;52.154;4.498;2022-07-11T00:26:38;42.73;36.33;53.36;;
72415;Laerm;60995;52.154;4.498;2022-07-11T00:28:55;42.70;36.56;53.77;;
72415;Laerm;60995;52.154;4.498;2022-07-11T00:31:11;44.24;36.47;54.08;;
72415;Laerm;60995;52.154;4.498;2022-07-11T00:33:28;44.16;36.12;56.79;;
72415;Laerm;60995;52.154;4.498;2022-07-11T00:35:44;43.28;36.55;53.65;;
72415;Laerm;60995;52.154;4.498;2022-07-11T00:38:04;42.56;36.16;52.58;;
72415;Laerm;60995;52.154;4.498;2022-07-11T00:40:20;42.87;36.53;52.78;;
72415;Laerm;60995;52.154;4.498;2022-07-11T00:42:37;44.19;36.34;55.28;;
72415;Laerm;60995;52.154;4.498;2022-07-11T00:44:57;42.70;36.58;54.40;;
72415;Laerm;60995;52.154;4.498;2022-07-11T00:47:13;43.32;36.82;52.58;;
72415;Laerm;60995;52.154;4.498;2022-07-11T00:49:29;42.85;36.46;52.97;;
72415;Laerm;60995;52.154;4.498;2022-07-11T00:51:46;42.76;36.93;53.16;;
72415;Laerm;60995;52.154;4.498;2022-07-11T00:54:03;42.63;36.62;52.18;;
72415;Laerm;60995;52.154;4.498;2022-07-11T00:56:26;45.51;36.64;70.87;;
72415;Laerm;60995;52.154;4.498;2022-07-11T00:58:47;45.38;36.84;60.60;;
72415;Laerm;60995;52.154;4.498;2022-07-11T01:01:04;42.82;36.64;52.14;;
72415;Laerm;60995;52.154;4.498;2022-07-11T01:03:28;42.88;36.75;57.15;;
72415;Laerm;60995;52.154;4.498;2022-07-11T01:05:45;42.72;36.33;53.40;;
72415;Laerm;60995;52.154;4.498;2022-07-11T01:08:02;42.90;35.71;52.84;;
72415;Laerm;60995;52.154;4.498;2022-07-11T01:10:18;42.73;36.76;52.37;;
72415;Laerm;60995;52.154;4.498;2022-07-11T01:12:35;43.61;36.91;52.67;;
72415;Laerm;60995;52.154;4.498;2022-07-11T01:14:54;43.00;36.52;53.01;;
72415;Laerm;60995;52.154;4.498;2022-07-11T01:17:10;43.25;36.51;54.11;;
72415;Laerm;60995;52.154;4.498;2022-07-11T01:19:27;43.98;37.19;58.62;;
72415;Laerm;60995;52.154;4.498;2022-07-11T01:21:49;42.58;36.10;53.32;;
72415;Laerm;60995;52.154;4.498;2022-07-11T01:24:07;42.94;36.15;53.91;;
72415;Laerm;60995;52.154;4.498;2022-07-11T01:26:25;42.67;36.86;52.88;;
72415;Laerm;60995;52.154;4.498;2022-07-11T01:28:42;43.44;36.83;56.74;;
72415;Laerm;60995;52.154;4.498;2022-07-11T01:30:59;43.88;36.94;54.20;;
72415;Laerm;60995;52.154;4.498;2022-07-11T01:33:16;43.14;36.59;52.23;;
72415;Laerm;60995;52.154;4.498;2022-07-11T01:35:35;44.27;36.20;56.68;;
72415;Laerm;60995;52.154;4.498;2022-07-11T01:37:52;42.72;35.93;53.19;;
72415;Laerm;60995;52.154;4.498;2022-07-11T01:40:09;42.59;36.07;53.34;;
72415;Laerm;60995;52.154;4.498;2022-07-11T01:42:26;43.29;36.35;53.62;;
72415;Laerm;60995;52.154;4.498;2022-07-11T01:44:43;42.72;36.84;52.57;;
72415;Laerm;60995;52.154;4.498;2022-07-11T01:46:59;43.12;36.47;53.00;;
72415;Laerm;60995;52.154;4.498;2022-07-11T01:49:16;43.46;36.44;60.47;;
72415;Laerm;60995;52.154;4.498;2022-07-11T01:51:34;43.45;36.57;58.49;;
72415;Laerm;60995;52.154;4.498;2022-07-11T01:53:51;43.52;36.11;53.64;;
72415;Laerm;60995;52.154;4.498;2022-07-11T01:56:09;42.76;36.65;53.06;;
72415;Laerm;60995;52.154;4.498;2022-07-11T01:58:25;43.40;36.71;53.55;;
72415;Laerm;60995;52.154;4.498;2022-07-11T02:00:41;42.79;36.46;52.28;;
72415;Laerm;60995;52.154;4.498;2022-07-11T02:02:58;42.86;36.71;53.76;;
72415;Laerm;60995;52.154;4.498;2022-07-11T02:05:15;42.72;36.36;53.43;;
72415;Laerm;60995;52.154;4.498;2022-07-11T02:07:31;42.68;36.09;53.11;;
72415;Laerm;60995;52.154;4.498;2022-07-11T02:10:06;42.36;36.49;52.05;;
72415;Laerm;60995;52.154;4.498;2022-07-11T02:12:23;42.60;35.78;53.33;;
72415;Laerm;60995;52.154;4.498;2022-07-11T02:14:40;42.72;36.30;52.40;;
72415;Laerm;60995;52.154;4.498;2022-07-11T02:16:56;43.14;36.86;52.39;;
72415;Laerm;60995;52.154;4.498;2022-07-11T02:19:12;43.15;36.62;52.57;;
72415;Laerm;60995;52.154;4.498;2022-07-11T02:21:29;43.03;36.42;52.68;;
72415;Laerm;60995;52.154;4.498;2022-07-11T02:23:45;43.35;36.67;55.44;;
72415;Laerm;60995;52.154;4.498;2022-07-11T02:26:02;43.34;36.28;57.15;;
72415;Laerm;60995;52.154;4.498;2022-07-11T02:28:19;47.61;36.63;71.39;;
72415;Laerm;60995;52.154;4.498;2022-07-11T02:30:40;43.28;36.75;62.31;;
72415;Laerm;60995;52.154;4.498;2022-07-11T02:32:56;44.84;36.64;60.99;;
72415;Laerm;60995;52.154;4.498;2022-07-11T02:35:13;43.67;36.32;56.27;;
72415;Laerm;60995;52.154;4.498;2022-07-11T02:37:30;47.28;36.52;66.24;;
72415;Laerm;60995;52.154;4.498;2022-07-11T02:39:46;44.24;36.34;63.31;;
72415;Laerm;60995;52.154;4.498;2022-07-11T02:42:03;43.43;36.72;58.82;;
72415;Laerm;60995;52.154;4.498;2022-07-11T02:44:20;42.84;36.42;53.50;;
72415;Laerm;60995;52.154;4.498;2022-07-11T02:46:37;43.91;36.61;56.45;;
72415;Laerm;60995;52.154;4.498;2022-07-11T02:48:53;43.94;36.87;61.95;;
72415;Laerm;60995;52.154;4.498;2022-07-11T02:51:09;43.05;36.70;57.60;;
72415;Laerm;60995;52.154;4.498;2022-07-11T02:53:26;46.21;36.73;65.48;;
72415;Laerm;60995;52.154;4.498;2022-07-11T02:55:42;46.94;36.93;71.35;;
72415;Laerm;60995;52.154;4.498;2022-07-11T02:57:58;43.11;36.59;55.82;;
72415;Laerm;60995;52.154;4.498;2022-07-11T03:00:17;44.32;36.85;60.64;;
72415;Laerm;60995;52.154;4.498;2022-07-11T03:02:34;44.16;36.81;61.96;;
72415;Laerm;60995;52.154;4.498;2022-07-11T03:04:50;44.62;36.50;56.82;;
72415;Laerm;60995;52.154;4.498;2022-07-11T03:07:07;52.18;36.91;67.61;;
72415;Laerm;60995;52.154;4.498;2022-07-11T03:09:23;56.08;37.78;79.27;;
72415;Laerm;60995;52.154;4.498;2022-07-11T03:11:40;47.68;36.76;67.45;;
72415;Laerm;60995;52.154;4.498;2022-07-11T03:13:56;43.80;36.46;66.39;;
72415;Laerm;60995;52.154;4.498;2022-07-11T03:16:12;50.97;37.02;70.35;;
72415;Laerm;60995;52.154;4.498;2022-07-11T03:18:28;52.44;37.73;70.42;;
72415;Laerm;60995;52.154;4.498;2022-07-11T03:20:45;46.90;37.25;64.12;;
72415;Laerm;60995;52.154;4.498;2022-07-11T03:23:01;47.65;37.04;66.56;;
72415;Laerm;60995;52.154;4.498;2022-07-11T03:25:18;51.96;37.17;71.80;;
72415;Laerm;60995;52.154;4.498;2022-07-11T03:27:34;45.44;36.35;61.63;;
72415;Laerm;60995;52.154;4.498;2022-07-11T03:29:51;46.32;36.95;61.51;;
72415;Laerm;60995;52.154;4.498;2022-07-11T03:32:08;45.60;36.65;59.99;;
72415;Laerm;60995;52.154;4.498;2022-07-11T03:34:25;44.81;36.28;64.52;;
72415;Laerm;60995;52.154;4.498;2022-07-11T03:36:41;45.76;36.89;65.83;;
72415;Laerm;60995;52.154;4.498;2022-07-11T03:38:57;43.96;37.14;53.28;;
72415;Laerm;60995;52.154;4.498;2022-07-11T03:41:15;45.28;36.66;56.12;;
72415;Laerm;60995;52.154;4.498;2022-07-11T03:43:31;50.43;36.40;70.20;;
72415;Laerm;60995;52.154;4.498;2022-07-11T03:45:47;48.05;37.17;66.99;;
72415;Laerm;60995;52.154;4.498;2022-07-11T03:48:05;49.95;37.27;66.64;;
72415;Laerm;60995;52.154;4.498;2022-07-11T03:50:22;52.32;36.93;72.69;;
72415;Laerm;60995;52.154;4.498;2022-07-11T03:52:38;48.66;37.10;68.43;;
72415;Laerm;60995;52.154;4.498;2022-07-11T03:54:54;51.04;36.67;72.45;;
72415;Laerm;60995;52.154;4.498;2022-07-11T03:57:11;51.88;37.32;74.95;;
72415;Laerm;60995;52.154;4.498;2022-07-11T03:59:27;44.98;37.35;56.42;;
72415;Laerm;60995;52.154;4.498;2022-07-11T04:01:43;46.10;37.00;63.92;;
72415;Laerm;60995;52.154;4.498;2022-07-11T04:04:00;44.03;37.24;54.53;;
72415;Laerm;60995;52.154;4.498;2022-07-11T04:06:16;48.37;37.38;63.67;;
72415;Laerm;60995;52.154;4.498;2022-07-11T04:08:32;45.85;36.93;60.03;;
72415;Laerm;60995;52.154;4.498;2022-07-11T04:10:49;45.76;37.03;60.51;;
72415;Laerm;60995;52.154;4.498;2022-07-11T04:13:05;46.20;36.81;56.39;;
72415;Laerm;60995;52.154;4.498;2022-07-11T04:15:22;47.50;37.17;57.73;;
72415;Laerm;60995;52.154;4.498;2022-07-11T04:17:38;46.27;37.71;55.78;;
72415;Laerm;60995;52.154;4.498;2022-07-11T04:19:54;54.04;38.54;74.06;;
72415;Laerm;60995;52.154;4.498;2022-07-11T04:22:11;48.40;37.79;67.42;;
72415;Laerm;60995;52.154;4.498;2022-07-11T04:24:28;51.40;37.84;70.81;;
72415;Laerm;60995;52.154;4.498;2022-07-11T04:26:44;48.11;37.27;64.18;;
72415;Laerm;60995;52.154;4.498;2022-07-11T04:29:00;46.40;37.29;64.62;;
72415;Laerm;60995;52.154;4.498;2022-07-11T04:31:17;47.59;37.87;59.76;;
72415;Laerm;60995;52.154;4.498;2022-07-11T04:33:33;48.17;38.09;65.14;;
72415;Laerm;60995;52.154;4.498;2022-07-11T04:35:49;47.82;37.93;66.16;;
72415;Laerm;60995;52.154;4.498;2022-07-11T04:38:06;48.74;37.86;73.53;;
72415;Laerm;60995;52.154;4.498;2022-07-11T04:40:22;46.55;38.09;56.89;;
72415;Laerm;60995;52.154;4.498;2022-07-11T04:42:39;48.27;38.53;63.44;;
72415;Laerm;60995;52.154;4.498;2022-07-11T04:44:55;46.54;37.19;61.31;;
72415;Laerm;60995;52.154;4.498;2022-07-11T04:47:12;50.70;38.56;71.64;;
72415;Laerm;60995;52.154;4.498;2022-07-11T04:49:29;49.26;38.11;61.76;;
72415;Laerm;60995;52.154;4.498;2022-07-11T04:51:46;52.19;38.52;74.80;;
72415;Laerm;60995;52.154;4.498;2022-07-11T04:54:03;46.91;37.81;58.75;;
72415;Laerm;60995;52.154;4.498;2022-07-11T04:56:19;46.44;37.73;65.68;;
72415;Laerm;60995;52.154;4.498;2022-07-11T04:58:36;47.35;38.02;56.65;;
72415;Laerm;60995;52.154;4.498;2022-07-11T05:00:52;48.08;38.25;60.46;;
72415;Laerm;60995;52.154;4.498;2022-07-11T05:03:10;47.17;37.12;57.36;;
72415;Laerm;60995;52.154;4.498;2022-07-11T05:05:26;47.57;38.89;54.94;;
72415;Laerm;60995;52.154;4.498;2022-07-11T05:07:43;46.88;37.98;60.50;;
72415;Laerm;60995;52.154;4.498;2022-07-11T05:10:00;49.11;38.06;65.35;;
72415;Laerm;60995;52.154;4.498;2022-07-11T05:12:16;46.48;37.81;55.53;;
72415;Laerm;60995;52.154;4.498;2022-07-11T05:14:33;45.46;37.56;56.60;;
72415;Laerm;60995;52.154;4.498;2022-07-11T05:16:49;46.12;38.18;55.16;;
72415;Laerm;60995;52.154;4.498;2022-07-11T05:19:05;47.22;38.29;56.42;;
72415;Laerm;60995;52.154;4.498;2022-07-11T05:21:21;50.69;38.79;70.82;;
72415;Laerm;60995;52.154;4.498;2022-07-11T05:23:40;53.29;38.25;69.02;;
72415;Laerm;60995;52.154;4.498;2022-07-11T05:25:57;54.97;38.76;75.02;;
72415;Laerm;60995;52.154;4.498;2022-07-11T05:28:13;53.05;38.23;70.84;;
72415;Laerm;60995;52.154;4.498;2022-07-11T05:30:29;50.94;38.34;68.67;;
72415;Laerm;60995;52.154;4.498;2022-07-11T05:32:46;50.74;39.44;67.57;;
72415;Laerm;60995;52.154;4.498;2022-07-11T05:35:02;51.91;38.80;64.34;;
72415;Laerm;60995;52.154;4.498;2022-07-11T05:37:20;48.52;40.58;56.87;;
72415;Laerm;60995;52.154;4.498;2022-07-11T05:39:37;51.45;45.49;61.99;;
72415;Laerm;60995;52.154;4.498;2022-07-11T05:41:53;50.57;40.10;69.54;;
72415;Laerm;60995;52.154;4.498;2022-07-11T05:44:10;53.97;39.20;74.91;;
72415;Laerm;60995;52.154;4.498;2022-07-11T05:46:26;51.32;38.84;70.07;;
72415;Laerm;60995;52.154;4.498;2022-07-11T05:48:43;52.82;41.73;64.87;;
72415;Laerm;60995;52.154;4.498;2022-07-11T05:51:00;49.49;39.38;59.00;;
72415;Laerm;60995;52.154;4.498;2022-07-11T05:53:19;53.74;39.40;68.16;;
72415;Laerm;60995;52.154;4.498;2022-07-11T05:55:35;50.13;39.62;64.48;;
72415;Laerm;60995;52.154;4.498;2022-07-11T05:57:51;47.83;38.59;60.73;;
72415;Laerm;60995;52.154;4.498;2022-07-11T06:00:08;48.76;39.57;58.26;;
72415;Laerm;60995;52.154;4.498;2022-07-11T06:02:25;51.99;42.75;69.40;;
72415;Laerm;60995;52.154;4.498;2022-07-11T06:04:41;48.84;40.37;64.44;;
72415;Laerm;60995;52.154;4.498;2022-07-11T06:07:01;48.95;40.09;59.58;;
72415;Laerm;60995;52.154;4.498;2022-07-11T06:09:17;51.27;38.84;66.30;;
72415;Laerm;60995;52.154;4.498;2022-07-11T06:11:33;52.97;40.30;78.51;;
72415;Laerm;60995;52.154;4.498;2022-07-11T06:13:50;48.53;39.20;60.99;;
72415;Laerm;60995;52.154;4.498;2022-07-11T06:16:08;48.61;38.45;62.10;;
72415;Laerm;60995;52.154;4.498;2022-07-11T06:18:25;49.19;40.08;62.41;;
72415;Laerm;60995;52.154;4.498;2022-07-11T06:20:41;48.94;38.70;60.38;;
72415;Laerm;60995;52.154;4.498;2022-07-11T06:22:58;48.96;39.53;60.90;;
72415;Laerm;60995;52.154;4.498;2022-07-11T06:25:14;50.50;39.36;68.71;;
72415;Laerm;60995;52.154;4.498;2022-07-11T06:27:30;49.09;40.01;63.02;;
72415;Laerm;60995;52.154;4.498;2022-07-11T06:29:47;52.40;40.38;80.30;;
72415;Laerm;60995;52.154;4.498;2022-07-11T06:32:03;48.28;38.93;58.81;;
72415;Laerm;60995;52.154;4.498;2022-07-11T06:34:20;49.09;39.65;64.51;;
72415;Laerm;60995;52.154;4.498;2022-07-11T06:36:36;48.47;38.19;61.63;;
72415;Laerm;60995;52.154;4.498;2022-07-11T06:38:53;47.89;38.10;61.42;;
72415;Laerm;60995;52.154;4.498;2022-07-11T06:41:10;49.61;40.03;66.89;;
72415;Laerm;60995;52.154;4.498;2022-07-11T06:43:28;47.51;38.42;63.42;;
72415;Laerm;60995;52.154;4.498;2022-07-11T06:45:45;52.91;40.45;66.12;;
72415;Laerm;60995;52.154;4.498;2022-07-11T06:48:03;47.42;38.97;62.71;;
72415;Laerm;60995;52.154;4.498;2022-07-11T06:50:19;49.41;39.95;65.67;;
72415;Laerm;60995;52.154;4.498;2022-07-11T06:52:36;51.47;38.60;65.50;;
72415;Laerm;60995;52.154;4.498;2022-07-11T06:54:52;47.86;38.34;63.40;;
72415;Laerm;60995;52.154;4.498;2022-07-11T06:57:09;50.89;38.47;65.24;;
72415;Laerm;60995;52.154;4.498;2022-07-11T06:59:25;52.91;39.59;66.16;;
72415;Laerm;60995;52.154;4.498;2022-07-11T07:01:41;53.37;38.70;63.46;;
72415;Laerm;60995;52.154;4.498;2022-07-11T07:04:04;54.02;38.30;70.55;;
72415;Laerm;60995;52.154;4.498;2022-07-11T07:06:20;52.50;42.36;65.50;;
72415;Laerm;60995;52.154;4.498;2022-07-11T07:08:37;50.51;38.55;63.61;;
72415;Laerm;60995;52.154;4.498;2022-07-11T07:10:54;51.35;39.17;65.23;;
72415;Laerm;60995;52.154;4.498;2022-07-11T07:13:10;51.59;38.43;66.42;;
72415;Laerm;60995;52.154;4.498;2022-07-11T07:15:26;47.72;38.51;54.89;;
72415;Laerm;60995;52.154;4.498;2022-07-11T07:17:45;49.01;40.18;59.16;;
72415;Laerm;60995;52.154;4.498;2022-07-11T07:20:01;52.18;39.71;64.48;;
72415;Laerm;60995;52.154;4.498;2022-07-11T07:22:18;51.82;40.67;66.75;;
72415;Laerm;60995;52.154;4.498;2022-07-11T07:24:35;47.56;37.77;70.99;;
72415;Laerm;60995;52.154;4.498;2022-07-11T07:26:54;46.82;38.41;59.00;;
72415;Laerm;60995;52.154;4.498;2022-07-11T07:29:10;55.30;40.59;72.92;;
72415;Laerm;60995;52.154;4.498;2022-07-11T07:31:27;53.64;38.94;72.71;;
72415;Laerm;60995;52.154;4.498;2022-07-11T07:33:43;47.84;38.05;60.47;;
72415;Laerm;60995;52.154;4.498;2022-07-11T07:35:59;49.35;39.79;69.64;;
72415;Laerm;60995;52.154;4.498;2022-07-11T07:38:16;46.88;38.88;57.48;;
72415;Laerm;60995;52.154;4.498;2022-07-11T07:40:34;51.21;39.09;76.83;;
72415;Laerm;60995;52.154;4.498;2022-07-11T07:42:50;48.16;38.87;69.09;;
72415;Laerm;60995;52.154;4.498;2022-07-11T07:45:13;47.71;38.77;62.22;;
72415;Laerm;60995;52.154;4.498;2022-07-11T07:47:30;48.77;39.87;65.14;;
72415;Laerm;60995;52.154;4.498;2022-07-11T07:49:46;48.64;39.96;60.11;;
72415;Laerm;60995;52.154;4.498;2022-07-11T07:52:03;47.79;38.09;56.00;;
72415;Laerm;60995;52.154;4.498;2022-07-11T07:54:22;47.12;38.90;57.34;;
72415;Laerm;60995;52.154;4.498;2022-07-11T07:56:40;49.53;40.70;58.75;;
72415;Laerm;60995;52.154;4.498;2022-07-11T07:58:57;49.60;40.52;58.87;;
72415;Laerm;60995;52.154;4.498;2022-07-11T08:01:16;49.44;40.18;57.79;;
72415;Laerm;60995;52.154;4.498;2022-07-11T08:03:52;51.46;40.16;65.14;;
72415;Laerm;60995;52.154;4.498;2022-07-11T08:06:14;48.62;39.97;64.36;;
72415;Laerm;60995;52.154;4.498;2022-07-11T08:08:32;50.45;41.02;63.96;;
72415;Laerm;60995;52.154;4.498;2022-07-11T08:10:51;49.87;40.82;58.27;;
72415;Laerm;60995;52.154;4.498;2022-07-11T08:13:08;48.65;39.20;60.70;;
72415;Laerm;60995;52.154;4.498;2022-07-11T08:15:24;48.95;40.12;61.59;;
72415;Laerm;60995;52.154;4.498;2022-07-11T08:17:41;51.48;42.48;73.52;;
72415;Laerm;60995;52.154;4.498;2022-07-11T08:20:10;49.61;41.25;59.16;;
72415;Laerm;60995;52.154;4.498;2022-07-11T08:22:37;49.32;40.57;65.33;;
72415;Laerm;60995;52.154;4.498;2022-07-11T08:24:56;48.67;41.26;61.75;;
72415;Laerm;60995;52.154;4.498;2022-07-11T08:27:12;49.79;39.57;65.07;;
72415;Laerm;60995;52.154;4.498;2022-07-11T08:29:45;48.10;40.88;55.41;;
72415;Laerm;60995;52.154;4.498;2022-07-11T08:32:09;50.46;40.56;71.75;;
72415;Laerm;60995;52.154;4.498;2022-07-11T08:34:35;50.74;41.20;69.81;;
72415;Laerm;60995;52.154;4.498;2022-07-11T08:36:51;49.35;41.39;64.56;;
72415;Laerm;60995;52.154;4.498;2022-07-11T08:39:08;49.74;39.69;63.64;;
72415;Laerm;60995;52.154;4.498;2022-07-11T08:41:24;49.51;39.84;70.05;;
72415;Laerm;60995;52.154;4.498;2022-07-11T08:43:43;50.85;39.79;67.38;;
72415;Laerm;60995;52.154;4.498;2022-07-11T08:46:02;53.46;42.27;68.54;;
72415;Laerm;60995;52.154;4.498;2022-07-11T08:48:22;52.64;40.08;67.40;;
72415;Laerm;60995;52.154;4.498;2022-07-11T08:50:39;50.99;39.35;69.60;;
72415;Laerm;60995;52.154;4.498;2022-07-11T08:52:58;50.46;39.71;64.49;;
72415;Laerm;60995;52.154;4.498;2022-07-11T08:55:27;47.87;39.27;58.43;;
72415;Laerm;60995;52.154;4.498;2022-07-11T08:58:06;49.47;40.27;62.78;;
72415;Laerm;60995;52.154;4.498;2022-07-11T09:00:40;48.94;39.69;60.24;;
72415;Laerm;60995;52.154;4.498;2022-07-11T09:03:16;46.85;38.86;56.49;;
72415;Laerm;60995;52.154;4.498;2022-07-11T09:05:46;48.35;39.19;58.93;;
72415;Laerm;60995;52.154;4.498;2022-07-11T09:08:16;48.42;40.35;58.03;;
72415;Laerm;60995;52.154;4.498;2022-07-11T09:10:49;50.43;40.86;63.28;;
72415;Laerm;60995;52.154;4.498;2022-07-11T09:13:30;49.89;42.10;59.21;;
72415;Laerm;60995;52.154;4.498;2022-07-11T09:16:13;50.91;41.78;64.16;;
72415;Laerm;60995;52.154;4.498;2022-07-11T09:18:45;48.58;40.53;65.74;;
72415;Laerm;60995;52.154;4.498;2022-07-11T09:21:14;50.67;43.04;67.01;;
72415;Laerm;60995;52.154;4.498;2022-07-11T09:23:51;53.43;43.41;65.37;;
72415;Laerm;60995;52.154;4.498;2022-07-11T09:26:36;50.99;42.00;67.59;;
72415;Laerm;60995;52.154;4.498;2022-07-11T09:29:07;53.68;42.81;73.60;;
72415;Laerm;60995;52.154;4.498;2022-07-11T09:31:27;51.09;42.73;69.68;;
72415;Laerm;60995;52.154;4.498;2022-07-11T09:34:07;48.96;42.46;58.08;;
72415;Laerm;60995;52.154;4.498;2022-07-11T09:36:55;49.10;39.67;65.63;;
72415;Laerm;60995;52.154;4.498;2022-07-11T09:39:16;51.29;39.88;65.90;;
72415;Laerm;60995;52.154;4.498;2022-07-11T09:41:35;53.07;39.55;68.27;;
72415;Laerm;60995;52.154;4.498;2022-07-11T09:43:51;51.26;40.19;68.34;;
72415;Laerm;60995;52.154;4.498;2022-07-11T09:46:10;49.46;39.67;68.40;;
72415;Laerm;60995;52.154;4.498;2022-07-11T09:48:29;48.49;38.87;61.45;;
72415;Laerm;60995;52.154;4.498;2022-07-11T09:50:57;49.38;38.98;61.59;;
72415;Laerm;60995;52.154;4.498;2022-07-11T09:53:20;49.99;41.13;62.78;;
72415;Laerm;60995;52.154;4.498;2022-07-11T09:55:39;49.96;40.46;63.99;;
72415;Laerm;60995;52.154;4.498;2022-07-11T09:57:57;48.89;40.69;57.74;;
72415;Laerm;60995;52.154;4.498;2022-07-11T10:00:16;51.30;40.73;66.65;;
72415;Laerm;60995;52.154;4.498;2022-07-11T10:02:35;50.27;41.79;62.77;;
72415;Laerm;60995;52.154;4.498;2022-07-11T10:04:52;49.28;40.27;63.05;;
72415;Laerm;60995;52.154;4.498;2022-07-11T10:07:11;51.16;41.94;60.44;;
72415;Laerm;60995;52.154;4.498;2022-07-11T10:09:27;49.23;39.83;60.01;;
72415;Laerm;60995;52.154;4.498;2022-07-11T10:11:47;49.20;39.22;62.07;;
72415;Laerm;60995;52.154;4.498;2022-07-11T10:14:14;51.43;40.16;64.09;;
72415;Laerm;60995;52.154;4.498;2022-07-11T10:17:02;52.40;40.09;69.10;;
72415;Laerm;60995;52.154;4.498;2022-07-11T10:19:46;50.51;40.37;66.38;;
72415;Laerm;60995;52.154;4.498;2022-07-11T10:30:47;58.76;40.28;74.63;;
72415;Laerm;60995;52.154;4.498;2022-07-11T10:33:07;56.12;40.92;71.77;;
72415;Laerm;60995;52.154;4.498;2022-07-11T10:35:29;53.24;41.90;69.10;;
72415;Laerm;60995;52.154;4.498;2022-07-11T10:37:48;54.58;40.84;72.08;;
72415;Laerm;60995;52.154;4.498;2022-07-11T10:40:08;51.68;41.05;61.68;;
72415;Laerm;60995;52.154;4.498;2022-07-11T10:42:39;52.56;40.16;68.26;;
72415;Laerm;60995;52.154;4.498;2022-07-11T10:44:56;51.93;40.72;68.57;;
72415;Laerm;60995;52.154;4.498;2022-07-11T10:49:52;52.14;40.24;71.88;;
72415;Laerm;60995;52.154;4.498;2022-07-11T10:52:09;59.29;42.85;78.12;;
72415;Laerm;60995;52.154;4.498;2022-07-11T10:57:27;63.75;39.52;83.48;;
72415;Laerm;60995;52.154;4.498;2022-07-11T11:00:11;56.47;40.93;72.73;;
72415;Laerm;60995;52.154;4.498;2022-07-11T11:02:30;58.40;39.95;74.04;;
72415;Laerm;60995;52.154;4.498;2022-07-11T11:04:57;55.76;40.07;67.58;;
72415;Laerm;60995;52.154;4.498;2022-07-11T11:09:51;56.13;41.52;73.51;;
72415;Laerm;60995;52.154;4.498;2022-07-11T11:12:07;53.30;44.60;64.21;;
72415;Laerm;60995;52.154;4.498;2022-07-11T11:14:25;51.67;40.45;63.01;;
72415;Laerm;60995;52.154;4.498;2022-07-11T11:16:42;51.48;39.08;63.33;;
72415;Laerm;60995;52.154;4.498;2022-07-11T11:18:59;53.48;39.25;66.14;;
72415;Laerm;60995;52.154;4.498;2022-07-11T11:21:19;50.78;39.70;62.93;;
72415;Laerm;60995;52.154;4.498;2022-07-11T11:23:45;50.54;39.34;62.01;;
72415;Laerm;60995;52.154;4.498;2022-07-11T11:26:19;50.68;38.41;64.19;;
72415;Laerm;60995;52.154;4.498;2022-07-11T11:28:55;50.34;38.36;63.90;;
72415;Laerm;60995;52.154;4.498;2022-07-11T11:31:19;51.27;39.90;62.58;;
72415;Laerm;60995;52.154;4.498;2022-07-11T11:33:38;50.94;40.21;61.13;;
72415;Laerm;60995;52.154;4.498;2022-07-11T11:36:08;51.25;40.18;60.65;;
72415;Laerm;60995;52.154;4.498;2022-07-11T11:38:51;53.78;39.36;69.41;;
72415;Laerm;60995;52.154;4.498;2022-07-11T11:41:14;51.14;39.74;63.32;;
72415;Laerm;60995;52.154;4.498;2022-07-11T11:43:43;50.72;40.08;74.81;;
72415;Laerm;60995;52.154;4.498;2022-07-11T11:46:03;51.39;41.12;61.71;;
72415;Laerm;60995;52.154;4.498;2022-07-11T11:50:48;51.41;40.74;63.46;;
72415;Laerm;60995;52.154;4.498;2022-07-11T11:53:06;53.76;39.86;82.48;;
72415;Laerm;60995;52.154;4.498;2022-07-11T11:55:23;53.10;39.03;73.09;;
72415;Laerm;60995;52.154;4.498;2022-07-11T11:57:39;49.95;39.74;61.39;;
72415;Laerm;60995;52.154;4.498;2022-07-11T11:59:57;57.40;41.15;70.63;;
72415;Laerm;60995;52.154;4.498;2022-07-11T12:02:27;50.97;38.70;66.36;;
72415;Laerm;60995;52.154;4.498;2022-07-11T12:04:44;51.75;40.72;67.35;;
72415;Laerm;60995;52.154;4.498;2022-07-11T12:07:00;49.99;40.06;64.97;;
72415;Laerm;60995;52.154;4.498;2022-07-11T12:09:22;50.43;41.51;63.14;;
72415;Laerm;60995;52.154;4.498;2022-07-11T12:12:02;53.56;40.30;67.25;;
72415;Laerm;60995;52.154;4.498;2022-07-11T12:14:37;51.57;40.19;64.39;;
72415;Laerm;60995;52.154;4.498;2022-07-11T12:16:53;53.75;44.07;71.92;;
72415;Laerm;60995;52.154;4.498;2022-07-11T12:19:23;56.33;39.84;73.39;;
72415;Laerm;60995;52.154;4.498;2022-07-11T12:21:53;54.25;41.28;71.43;;
72415;Laerm;60995;52.154;4.498;2022-07-11T12:24:20;54.13;42.87;71.41;;
72415;Laerm;60995;52.154;4.498;2022-07-11T12:26:40;51.72;42.92;60.81;;
72415;Laerm;60995;52.154;4.498;2022-07-11T12:29:17;53.28;42.92;69.40;;
72415;Laerm;60995;52.154;4.498;2022-07-11T12:32:11;50.07;42.06;64.13;;
72415;Laerm;60995;52.154;4.498;2022-07-11T12:37:21;50.70;42.14;65.69;;
72415;Laerm;60995;52.154;4.498;2022-07-11T12:39:48;50.58;41.60;64.51;;
72415;Laerm;60995;52.154;4.498;2022-07-11T12:45:09;52.73;42.73;76.54;;
72415;Laerm;60995;52.154;4.498;2022-07-11T12:47:29;58.19;42.94;80.18;;
72415;Laerm;60995;52.154;4.498;2022-07-11T12:49:46;58.01;41.99;81.54;;
72415;Laerm;60995;52.154;4.498;2022-07-11T12:52:02;51.24;41.78;67.22;;
72415;Laerm;60995;52.154;4.498;2022-07-11T12:54:20;50.65;42.28;61.78;;
72415;Laerm;60995;52.154;4.498;2022-07-11T12:56:53;49.80;42.01;61.13;;
72415;Laerm;60995;52.154;4.498;2022-07-11T12:59:22;49.40;41.49;67.63;;
72415;Laerm;60995;52.154;4.498;2022-07-11T13:01:55;53.20;42.63;73.01;;
72415;Laerm;60995;52.154;4.498;2022-07-11T13:04:37;50.80;42.76;66.79;;
72415;Laerm;60995;52.154;4.498;2022-07-11T13:06:53;51.27;42.92;66.20;;
72415;Laerm;60995;52.154;4.498;2022-07-11T13:09:31;49.76;41.33;61.71;;
72415;Laerm;60995;52.154;4.498;2022-07-11T13:11:47;50.69;40.96;63.11;;
72415;Laerm;60995;52.154;4.498;2022-07-11T13:14:04;54.70;39.65;77.92;;
72415;Laerm;60995;52.154;4.498;2022-07-11T13:16:40;49.83;38.44;71.54;;
72415;Laerm;60995;52.154;4.498;2022-07-11T13:18:56;50.46;39.29;67.28;;
72415;Laerm;60995;52.154;4.498;2022-07-11T13:21:17;53.50;39.62;69.91;;
72415;Laerm;60995;52.154;4.498;2022-07-11T13:23:37;53.57;39.18;68.90;;
72415;Laerm;60995;52.154;4.498;2022-07-11T13:25:55;51.26;40.25;67.37;;
72415;Laerm;60995;52.154;4.498;2022-07-11T13:28:11;51.13;41.26;67.63;;